sensor_id;sensor_type;location;lat;lon;timestamp;P1;durP1;ratioP1;P2;durP2;ratioP2
31224;SDS011;17847;31.524;74.366;2022-07-06T00:00:24;41.35;;;27.60;;
31224;SDS011;17847;31.524;74.366;2022-07-06T00:03:20;42.75;;;26.13;;
31224;SDS011;17847;31.524;74.366;2022-07-06T00:05:55;37.15;;;25.90;;
31224;SDS011;17847;31.524;74.366;2022-07-06T00:08:51;39.45;;;27.67;;
31224;SDS011;17847;31.524;74.366;2022-07-06T00:11:26;36.30;;;24.23;;
31224;SDS011;17847;31.524;74.366;2022-07-06T00:14:22;42.38;;;27.67;;
31224;SDS011;17847;31.524;74.366;2022-07-06T00:16:57;38.08;;;25.52;;
31224;SDS011;17847;31.524;74.366;2022-07-06T00:19:53;41.15;;;26.95;;
31224;SDS011;17847;31.524;74.366;2022-07-06T00:22:28;43.13;;;27.27;;
31224;SDS011;17847;31.524;74.366;2022-07-06T00:25:24;39.13;;;26.75;;
31224;SDS011;17847;31.524;74.366;2022-07-06T00:27:59;38.80;;;25.50;;
31224;SDS011;17847;31.524;74.366;2022-07-06T00:30:55;41.60;;;26.17;;
31224;SDS011;17847;31.524;74.366;2022-07-06T00:33:30;39.55;;;27.33;;
31224;SDS011;17847;31.524;74.366;2022-07-06T00:36:27;45.50;;;28.23;;
31224;SDS011;17847;31.524;74.366;2022-07-06T00:39:02;39.08;;;26.25;;
31224;SDS011;17847;31.524;74.366;2022-07-06T00:41:58;36.97;;;26.42;;
31224;SDS011;17847;31.524;74.366;2022-07-06T00:44:40;42.95;;;28.77;;
31224;SDS011;17847;31.524;74.366;2022-07-06T00:47:29;42.25;;;29.10;;
31224;SDS011;17847;31.524;74.366;2022-07-06T00:50:14;47.42;;;30.20;;
31224;SDS011;17847;31.524;74.366;2022-07-06T00:55:48;42.95;;;29.15;;
31224;SDS011;17847;31.524;74.366;2022-07-06T00:58:45;41.63;;;29.40;;
31224;SDS011;17847;31.524;74.366;2022-07-06T01:01:27;47.08;;;31.92;;
31224;SDS011;17847;31.524;74.366;2022-07-06T01:04:17;49.00;;;32.28;;
31224;SDS011;17847;31.524;74.366;2022-07-06T01:06:52;47.95;;;31.65;;
31224;SDS011;17847;31.524;74.366;2022-07-06T01:09:49;52.58;;;33.00;;
31224;SDS011;17847;31.524;74.366;2022-07-06T01:12:24;46.60;;;31.58;;
31224;SDS011;17847;31.524;74.366;2022-07-06T01:15:22;49.13;;;31.33;;
31224;SDS011;17847;31.524;74.366;2022-07-06T01:18:04;48.33;;;32.67;;
31224;SDS011;17847;31.524;74.366;2022-07-06T01:21:07;44.13;;;31.77;;
31224;SDS011;17847;31.524;74.366;2022-07-06T01:23:53;58.17;;;35.55;;
31224;SDS011;17847;31.524;74.366;2022-07-06T01:26:42;54.67;;;37.75;;
31224;SDS011;17847;31.524;74.366;2022-07-06T01:29:24;51.53;;;33.83;;
31224;SDS011;17847;31.524;74.366;2022-07-06T01:32:13;59.72;;;39.75;;
31224;SDS011;17847;31.524;74.366;2022-07-06T01:34:56;61.65;;;41.05;;
31224;SDS011;17847;31.524;74.366;2022-07-06T01:37:52;55.78;;;37.42;;
31224;SDS011;17847;31.524;74.366;2022-07-06T01:40:27;66.50;;;41.95;;
31224;SDS011;17847;31.524;74.366;2022-07-06T01:43:23;70.22;;;46.10;;
31224;SDS011;17847;31.524;74.366;2022-07-06T01:46:05;70.95;;;46.20;;
31224;SDS011;17847;31.524;74.366;2022-07-06T01:49:01;79.35;;;46.67;;
31224;SDS011;17847;31.524;74.366;2022-07-06T01:51:43;65.07;;;44.63;;
31224;SDS011;17847;31.524;74.366;2022-07-06T01:54:39;68.53;;;46.35;;
31224;SDS011;17847;31.524;74.366;2022-07-06T01:57:14;80.55;;;51.75;;
31224;SDS011;17847;31.524;74.366;2022-07-06T02:00:10;72.68;;;48.55;;
31224;SDS011;17847;31.524;74.366;2022-07-06T02:02:52;88.72;;;52.58;;
31224;SDS011;17847;31.524;74.366;2022-07-06T02:05:48;77.30;;;52.20;;
31224;SDS011;17847;31.524;74.366;2022-07-06T02:08:38;82.20;;;52.50;;
31224;SDS011;17847;31.524;74.366;2022-07-06T02:11:34;84.50;;;52.20;;
31224;SDS011;17847;31.524;74.366;2022-07-06T02:14:29;81.50;;;52.80;;
31224;SDS011;17847;31.524;74.366;2022-07-06T02:17:11;85.93;;;54.15;;
31224;SDS011;17847;31.524;74.366;2022-07-06T02:20:00;78.60;;;52.17;;
31224;SDS011;17847;31.524;74.366;2022-07-06T02:22:43;80.93;;;54.38;;
31224;SDS011;17847;31.524;74.366;2022-07-06T02:25:32;83.82;;;54.60;;
31224;SDS011;17847;31.524;74.366;2022-07-06T02:28:14;91.05;;;53.08;;
31224;SDS011;17847;31.524;74.366;2022-07-06T02:31:04;74.10;;;49.80;;
31224;SDS011;17847;31.524;74.366;2022-07-06T02:33:48;85.85;;;54.90;;
31224;SDS011;17847;31.524;74.366;2022-07-06T02:39:19;78.45;;;51.97;;
31224;SDS011;17847;31.524;74.366;2022-07-06T02:42:16;86.03;;;53.60;;
31224;SDS011;17847;31.524;74.366;2022-07-06T02:44:58;81.05;;;52.75;;
31224;SDS011;17847;31.524;74.366;2022-07-06T02:47:47;79.50;;;51.55;;
31224;SDS011;17847;31.524;74.366;2022-07-06T02:50:30;76.88;;;50.60;;
31224;SDS011;17847;31.524;74.366;2022-07-06T02:53:19;83.77;;;54.60;;
31224;SDS011;17847;31.524;74.366;2022-07-06T02:56:01;82.20;;;52.58;;
31224;SDS011;17847;31.524;74.366;2022-07-06T02:58:57;84.90;;;54.83;;
31224;SDS011;17847;31.524;74.366;2022-07-06T03:01:33;80.80;;;53.53;;
31224;SDS011;17847;31.524;74.366;2022-07-06T03:04:29;86.05;;;54.42;;
31224;SDS011;17847;31.524;74.366;2022-07-06T03:07:12;85.72;;;53.47;;
31224;SDS011;17847;31.524;74.366;2022-07-06T03:10:02;90.28;;;56.15;;
31224;SDS011;17847;31.524;74.366;2022-07-06T03:12:51;78.60;;;51.45;;
31224;SDS011;17847;31.524;74.366;2022-07-06T03:15:45;85.18;;;52.42;;
31224;SDS011;17847;31.524;74.366;2022-07-06T03:18:29;78.13;;;50.20;;
31224;SDS011;17847;31.524;74.366;2022-07-06T03:21:18;79.70;;;52.25;;
31224;SDS011;17847;31.524;74.366;2022-07-06T03:24:01;85.20;;;51.33;;
31224;SDS011;17847;31.524;74.366;2022-07-06T03:26:50;86.17;;;50.07;;
31224;SDS011;17847;31.524;74.366;2022-07-06T03:29:33;74.30;;;49.95;;
31224;SDS011;17847;31.524;74.366;2022-07-06T03:32:29;71.68;;;48.78;;
31224;SDS011;17847;31.524;74.366;2022-07-06T03:35:06;73.30;;;48.30;;
31224;SDS011;17847;31.524;74.366;2022-07-06T03:38:04;74.72;;;49.45;;
31224;SDS011;17847;31.524;74.366;2022-07-06T03:40:41;73.55;;;50.72;;
31224;SDS011;17847;31.524;74.366;2022-07-06T03:43:38;88.40;;;52.45;;
31224;SDS011;17847;31.524;74.366;2022-07-06T03:46:21;74.65;;;49.45;;
31224;SDS011;17847;31.524;74.366;2022-07-06T03:49:12;77.25;;;48.40;;
31224;SDS011;17847;31.524;74.366;2022-07-06T03:51:57;60.28;;;40.25;;
31224;SDS011;17847;31.524;74.366;2022-07-06T03:54:50;55.40;;;38.00;;
31224;SDS011;17847;31.524;74.366;2022-07-06T03:57:34;51.95;;;32.45;;
31224;SDS011;17847;31.524;74.366;2022-07-06T04:00:27;44.53;;;29.23;;
31224;SDS011;17847;31.524;74.366;2022-07-06T04:03:15;59.47;;;26.77;;
31224;SDS011;17847;31.524;74.366;2022-07-06T04:06:10;31.50;;;23.38;;
31224;SDS011;17847;31.524;74.366;2022-07-06T04:08:52;32.22;;;22.73;;
31224;SDS011;17847;31.524;74.366;2022-07-06T04:11:41;36.55;;;22.00;;
31224;SDS011;17847;31.524;74.366;2022-07-06T04:14:31;38.92;;;21.45;;
31224;SDS011;17847;31.524;74.366;2022-07-06T04:17:13;27.95;;;20.05;;
31224;SDS011;17847;31.524;74.366;2022-07-06T04:20:21;30.98;;;19.08;;
31224;SDS011;17847;31.524;74.366;2022-07-06T04:23:00;32.38;;;19.88;;
31224;SDS011;17847;31.524;74.366;2022-07-06T04:25:57;33.35;;;18.52;;
31224;SDS011;17847;31.524;74.366;2022-07-06T04:28:36;25.98;;;17.83;;
31224;SDS011;17847;31.524;74.366;2022-07-06T04:31:33;21.48;;;16.75;;
31224;SDS011;17847;31.524;74.366;2022-07-06T04:34:09;26.83;;;16.08;;
31224;SDS011;17847;31.524;74.366;2022-07-06T04:37:05;25.20;;;16.42;;
31224;SDS011;17847;31.524;74.366;2022-07-06T04:39:46;25.15;;;16.23;;
31224;SDS011;17847;31.524;74.366;2022-07-06T04:42:37;22.35;;;14.90;;
31224;SDS011;17847;31.524;74.366;2022-07-06T04:45:20;25.02;;;16.17;;
31224;SDS011;17847;31.524;74.366;2022-07-06T04:48:11;18.52;;;14.13;;
31224;SDS011;17847;31.524;74.366;2022-07-06T04:50:53;20.05;;;14.70;;
31224;SDS011;17847;31.524;74.366;2022-07-06T04:53:42;19.80;;;14.23;;
31224;SDS011;17847;31.524;74.366;2022-07-06T04:56:23;20.58;;;13.30;;
31224;SDS011;17847;31.524;74.366;2022-07-06T04:59:12;22.33;;;12.63;;
31224;SDS011;17847;31.524;74.366;2022-07-06T05:02:03;19.77;;;12.43;;
31224;SDS011;17847;31.524;74.366;2022-07-06T05:04:58;20.75;;;13.07;;
31224;SDS011;17847;31.524;74.366;2022-07-06T05:07:33;22.08;;;14.80;;
31224;SDS011;17847;31.524;74.366;2022-07-06T05:10:30;24.05;;;14.23;;
31224;SDS011;17847;31.524;74.366;2022-07-06T05:13:18;18.08;;;13.98;;
31224;SDS011;17847;31.524;74.366;2022-07-06T05:16:14;28.67;;;14.93;;
31224;SDS011;17847;31.524;74.366;2022-07-06T05:19:09;20.90;;;13.68;;
31224;SDS011;17847;31.524;74.366;2022-07-06T05:21:50;19.90;;;13.95;;
31224;SDS011;17847;31.524;74.366;2022-07-06T05:24:41;21.15;;;13.65;;
31224;SDS011;17847;31.524;74.366;2022-07-06T05:27:16;51.50;;;15.43;;
31224;SDS011;17847;31.524;74.366;2022-07-06T05:30:13;23.98;;;14.25;;
31224;SDS011;17847;31.524;74.366;2022-07-06T05:32:56;18.20;;;13.88;;
31224;SDS011;17847;31.524;74.366;2022-07-06T05:35:53;23.27;;;14.18;;
31224;SDS011;17847;31.524;74.366;2022-07-06T05:38:28;22.38;;;13.85;;
31224;SDS011;17847;31.524;74.366;2022-07-06T05:41:24;19.20;;;12.75;;
31224;SDS011;17847;31.524;74.366;2022-07-06T05:44:06;23.50;;;14.93;;
31224;SDS011;17847;31.524;74.366;2022-07-06T05:46:55;21.77;;;13.52;;
31224;SDS011;17847;31.524;74.366;2022-07-06T05:49:51;22.80;;;14.13;;
31224;SDS011;17847;31.524;74.366;2022-07-06T05:53:03;18.90;;;13.60;;
31224;SDS011;17847;31.524;74.366;2022-07-06T05:55:55;22.52;;;12.30;;
31224;SDS011;17847;31.524;74.366;2022-07-06T05:58:45;19.63;;;13.15;;
31224;SDS011;17847;31.524;74.366;2022-07-06T06:01:20;25.38;;;12.40;;
31224;SDS011;17847;31.524;74.366;2022-07-06T06:04:19;20.40;;;12.25;;
31224;SDS011;17847;31.524;74.366;2022-07-06T06:06:55;20.15;;;12.10;;
31224;SDS011;17847;31.524;74.366;2022-07-06T06:09:51;30.10;;;6.97;;
31224;SDS011;17847;31.524;74.366;2022-07-06T06:12:26;46.53;;;6.43;;
31224;SDS011;17847;31.524;74.366;2022-07-06T06:15:22;42.22;;;6.63;;
31224;SDS011;17847;31.524;74.366;2022-07-06T06:18:17;45.70;;;6.65;;
31224;SDS011;17847;31.524;74.366;2022-07-06T06:24:02;29.83;;;4.60;;
31224;SDS011;17847;31.524;74.366;2022-07-06T06:26:52;29.88;;;4.65;;
31224;SDS011;17847;31.524;74.366;2022-07-06T06:29:34;21.65;;;3.00;;
31224;SDS011;17847;31.524;74.366;2022-07-06T06:32:32;23.27;;;3.53;;
31224;SDS011;17847;31.524;74.366;2022-07-06T06:35:13;9.20;;;2.83;;
31224;SDS011;17847;31.524;74.366;2022-07-06T06:38:02;15.32;;;3.20;;
31224;SDS011;17847;31.524;74.366;2022-07-06T06:40:37;17.52;;;4.68;;
31224;SDS011;17847;31.524;74.366;2022-07-06T06:43:32;10.88;;;4.10;;
31224;SDS011;17847;31.524;74.366;2022-07-06T06:46:17;12.75;;;4.75;;
31224;SDS011;17847;31.524;74.366;2022-07-06T06:49:06;10.30;;;3.88;;
31224;SDS011;17847;31.524;74.366;2022-07-06T06:51:48;8.18;;;4.03;;
31224;SDS011;17847;31.524;74.366;2022-07-06T06:54:57;13.13;;;4.28;;
31224;SDS011;17847;31.524;74.366;2022-07-06T06:57:32;5.88;;;4.05;;
31224;SDS011;17847;31.524;74.366;2022-07-06T07:00:28;7.25;;;4.18;;
31224;SDS011;17847;31.524;74.366;2022-07-06T07:03:10;14.30;;;5.63;;
31224;SDS011;17847;31.524;74.366;2022-07-06T07:05:59;12.77;;;6.57;;
31224;SDS011;17847;31.524;74.366;2022-07-06T07:08:54;15.20;;;6.95;;
31224;SDS011;17847;31.524;74.366;2022-07-06T07:11:36;12.63;;;6.68;;
31224;SDS011;17847;31.524;74.366;2022-07-06T07:14:25;10.65;;;6.25;;
31224;SDS011;17847;31.524;74.366;2022-07-06T07:17:13;8.13;;;5.05;;
31224;SDS011;17847;31.524;74.366;2022-07-06T07:20:09;8.85;;;4.85;;
31224;SDS011;17847;31.524;74.366;2022-07-06T07:22:51;9.25;;;5.00;;
31224;SDS011;17847;31.524;74.366;2022-07-06T07:25:40;9.20;;;5.25;;
31224;SDS011;17847;31.524;74.366;2022-07-06T07:28:22;9.82;;;5.60;;
31224;SDS011;17847;31.524;74.366;2022-07-06T07:31:10;9.95;;;5.22;;
31224;SDS011;17847;31.524;74.366;2022-07-06T07:33:53;8.57;;;4.85;;
31224;SDS011;17847;31.524;74.366;2022-07-06T07:36:49;7.50;;;4.97;;
31224;SDS011;17847;31.524;74.366;2022-07-06T07:39:31;6.88;;;4.10;;
31224;SDS011;17847;31.524;74.366;2022-07-06T07:42:20;7.50;;;3.90;;
31224;SDS011;17847;31.524;74.366;2022-07-06T07:45:02;5.50;;;3.70;;
31224;SDS011;17847;31.524;74.366;2022-07-06T07:47:51;6.45;;;3.65;;
31224;SDS011;17847;31.524;74.366;2022-07-06T07:50:33;6.45;;;4.07;;
31224;SDS011;17847;31.524;74.366;2022-07-06T07:53:29;6.90;;;3.88;;
31224;SDS011;17847;31.524;74.366;2022-07-06T07:56:11;4.65;;;3.78;;
31224;SDS011;17847;31.524;74.366;2022-07-06T07:59:07;5.55;;;4.20;;
31224;SDS011;17847;31.524;74.366;2022-07-06T08:01:43;4.97;;;4.20;;
31224;SDS011;17847;31.524;74.366;2022-07-06T08:04:39;6.18;;;4.32;;
31224;SDS011;17847;31.524;74.366;2022-07-06T08:07:15;4.70;;;3.17;;
31224;SDS011;17847;31.524;74.366;2022-07-06T08:10:10;10.60;;;3.50;;
31224;SDS011;17847;31.524;74.366;2022-07-06T08:12:46;5.22;;;3.30;;
31224;SDS011;17847;31.524;74.366;2022-07-06T08:15:42;5.88;;;3.38;;
31224;SDS011;17847;31.524;74.366;2022-07-06T08:18:18;11.07;;;5.10;;
31224;SDS011;17847;31.524;74.366;2022-07-06T08:21:14;6.30;;;3.13;;
31224;SDS011;17847;31.524;74.366;2022-07-06T08:23:59;8.38;;;3.72;;
31224;SDS011;17847;31.524;74.366;2022-07-06T08:26:55;6.78;;;3.85;;
31224;SDS011;17847;31.524;74.366;2022-07-06T08:29:39;6.93;;;3.38;;
31224;SDS011;17847;31.524;74.366;2022-07-06T08:32:28;9.18;;;3.70;;
31224;SDS011;17847;31.524;74.366;2022-07-06T08:35:30;8.07;;;3.95;;
31224;SDS011;17847;31.524;74.366;2022-07-06T08:38:19;9.50;;;4.65;;
31224;SDS011;17847;31.524;74.366;2022-07-06T08:41:01;9.80;;;4.47;;
31224;SDS011;17847;31.524;74.366;2022-07-06T08:43:52;7.32;;;4.57;;
31224;SDS011;17847;31.524;74.366;2022-07-06T08:46:35;12.77;;;5.35;;
31224;SDS011;17847;31.524;74.366;2022-07-06T08:49:26;10.13;;;6.07;;
31224;SDS011;17847;31.524;74.366;2022-07-06T08:52:08;10.88;;;5.47;;
31224;SDS011;17847;31.524;74.366;2022-07-06T08:54:57;20.20;;;6.05;;
31224;SDS011;17847;31.524;74.366;2022-07-06T08:57:39;12.32;;;6.20;;
31224;SDS011;17847;31.524;74.366;2022-07-06T09:00:36;11.10;;;6.20;;
31224;SDS011;17847;31.524;74.366;2022-07-06T09:03:18;8.75;;;6.18;;
31224;SDS011;17847;31.524;74.366;2022-07-06T09:06:09;13.20;;;6.13;;
31224;SDS011;17847;31.524;74.366;2022-07-06T09:08:53;15.20;;;6.35;;
31224;SDS011;17847;31.524;74.366;2022-07-06T09:11:43;16.50;;;6.35;;
31224;SDS011;17847;31.524;74.366;2022-07-06T09:14:25;8.82;;;5.90;;
31224;SDS011;17847;31.524;74.366;2022-07-06T09:17:15;16.20;;;9.02;;
31224;SDS011;17847;31.524;74.366;2022-07-06T09:20:11;15.95;;;7.65;;
31224;SDS011;17847;31.524;74.366;2022-07-06T09:23:03;18.38;;;9.80;;
31224;SDS011;17847;31.524;74.366;2022-07-06T09:26:03;29.08;;;14.88;;
31224;SDS011;17847;31.524;74.366;2022-07-06T09:28:44;29.08;;;15.43;;
31224;SDS011;17847;31.524;74.366;2022-07-06T09:31:40;19.60;;;8.70;;
31224;SDS011;17847;31.524;74.366;2022-07-06T09:34:22;19.02;;;9.10;;
31224;SDS011;17847;31.524;74.366;2022-07-06T09:37:11;19.92;;;9.80;;
31224;SDS011;17847;31.524;74.366;2022-07-06T09:39:59;31.80;;;14.38;;
31224;SDS011;17847;31.524;74.366;2022-07-06T09:43:14;36.90;;;17.13;;
31224;SDS011;17847;31.524;74.366;2022-07-06T09:45:59;37.15;;;20.40;;
31224;SDS011;17847;31.524;74.366;2022-07-06T09:48:49;43.72;;;22.63;;
31224;SDS011;17847;31.524;74.366;2022-07-06T09:51:24;42.95;;;23.35;;
31224;SDS011;17847;31.524;74.366;2022-07-06T09:54:25;61.22;;;35.30;;
31224;SDS011;17847;31.524;74.366;2022-07-06T09:57:00;68.05;;;39.30;;
31224;SDS011;17847;31.524;74.366;2022-07-06T09:59:57;52.60;;;31.65;;
31224;SDS011;17847;31.524;74.366;2022-07-06T10:02:40;47.92;;;26.20;;
31224;SDS011;17847;31.524;74.366;2022-07-06T10:05:36;50.08;;;25.23;;
31224;SDS011;17847;31.524;74.366;2022-07-06T10:08:20;22.70;;;14.13;;
31224;SDS011;17847;31.524;74.366;2022-07-06T10:11:09;19.55;;;10.95;;
31224;SDS011;17847;31.524;74.366;2022-07-06T10:13:56;13.88;;;9.60;;
31224;SDS011;17847;31.524;74.366;2022-07-06T10:16:45;16.85;;;9.25;;
31224;SDS011;17847;31.524;74.366;2022-07-06T10:19:34;19.30;;;9.68;;
31224;SDS011;17847;31.524;74.366;2022-07-06T10:22:16;12.63;;;7.65;;
31224;SDS011;17847;31.524;74.366;2022-07-06T10:25:07;12.52;;;7.05;;
31224;SDS011;17847;31.524;74.366;2022-07-06T10:27:42;10.73;;;6.85;;
31224;SDS011;17847;31.524;74.366;2022-07-06T10:30:39;12.93;;;6.30;;
31224;SDS011;17847;31.524;74.366;2022-07-06T10:33:15;9.27;;;6.15;;
31224;SDS011;17847;31.524;74.366;2022-07-06T10:36:11;9.48;;;5.10;;
31224;SDS011;17847;31.524;74.366;2022-07-06T10:38:55;8.70;;;5.75;;
31224;SDS011;17847;31.524;74.366;2022-07-06T10:42:38;11.00;;;7.18;;
31224;SDS011;17847;31.524;74.366;2022-07-06T10:48:22;19.58;;;12.35;;
31224;SDS011;17847;31.524;74.366;2022-07-06T10:51:04;27.48;;;13.10;;
31224;SDS011;17847;31.524;74.366;2022-07-06T10:53:58;24.20;;;12.55;;
31224;SDS011;17847;31.524;74.366;2022-07-06T10:56:47;25.92;;;16.80;;
31224;SDS011;17847;31.524;74.366;2022-07-06T11:00:04;24.38;;;15.98;;
31224;SDS011;17847;31.524;74.366;2022-07-06T11:02:40;24.33;;;15.80;;
31224;SDS011;17847;31.524;74.366;2022-07-06T11:05:42;18.52;;;12.27;;
31224;SDS011;17847;31.524;74.366;2022-07-06T11:11:48;18.38;;;11.55;;
31224;SDS011;17847;31.524;74.366;2022-07-06T11:14:34;25.23;;;14.60;;
31224;SDS011;17847;31.524;74.366;2022-07-06T11:17:23;27.20;;;14.35;;
31224;SDS011;17847;31.524;74.366;2022-07-06T11:20:12;21.15;;;13.30;;
31224;SDS011;17847;31.524;74.366;2022-07-06T11:23:08;22.38;;;13.45;;
31224;SDS011;17847;31.524;74.366;2022-07-06T11:25:55;26.70;;;16.25;;
31224;SDS011;17847;31.524;74.366;2022-07-06T11:28:45;29.90;;;16.10;;
31224;SDS011;17847;31.524;74.366;2022-07-06T11:31:28;27.63;;;14.60;;
31224;SDS011;17847;31.524;74.366;2022-07-06T11:34:25;23.65;;;14.10;;
31224;SDS011;17847;31.524;74.366;2022-07-06T11:37:13;28.10;;;14.68;;
31224;SDS011;17847;31.524;74.366;2022-07-06T11:40:11;26.55;;;15.02;;
31224;SDS011;17847;31.524;74.366;2022-07-06T11:42:53;37.65;;;18.73;;
31224;SDS011;17847;31.524;74.366;2022-07-06T11:45:48;27.50;;;17.17;;
31224;SDS011;17847;31.524;74.366;2022-07-06T11:48:31;30.45;;;17.30;;
31224;SDS011;17847;31.524;74.366;2022-07-06T11:51:31;27.88;;;16.95;;
31224;SDS011;17847;31.524;74.366;2022-07-06T11:54:10;32.97;;;18.50;;
31224;SDS011;17847;31.524;74.366;2022-07-06T11:57:09;31.88;;;18.83;;
31224;SDS011;17847;31.524;74.366;2022-07-06T11:59:52;30.35;;;17.45;;
31224;SDS011;17847;31.524;74.366;2022-07-06T12:02:59;22.55;;;15.25;;
31224;SDS011;17847;31.524;74.366;2022-07-06T12:05:42;22.83;;;14.07;;
31224;SDS011;17847;31.524;74.366;2022-07-06T12:08:45;27.58;;;17.60;;
31224;SDS011;17847;31.524;74.366;2022-07-06T12:11:27;28.52;;;18.08;;
31224;SDS011;17847;31.524;74.366;2022-07-06T12:14:29;28.45;;;18.23;;
31224;SDS011;17847;31.524;74.366;2022-07-06T12:17:07;27.25;;;16.35;;
31224;SDS011;17847;31.524;74.366;2022-07-06T12:20:04;31.23;;;17.65;;
31224;SDS011;17847;31.524;74.366;2022-07-06T12:23:06;27.90;;;16.63;;
31224;SDS011;17847;31.524;74.366;2022-07-06T12:25:51;27.98;;;17.73;;
31224;SDS011;17847;31.524;74.366;2022-07-06T12:28:42;29.20;;;18.55;;
31224;SDS011;17847;31.524;74.366;2022-07-06T12:31:35;32.05;;;18.88;;
31224;SDS011;17847;31.524;74.366;2022-07-06T12:34:33;26.27;;;19.20;;
31224;SDS011;17847;31.524;74.366;2022-07-06T12:37:11;28.00;;;17.25;;
31224;SDS011;17847;31.524;74.366;2022-07-06T12:40:14;28.80;;;17.80;;
31224;SDS011;17847;31.524;74.366;2022-07-06T12:42:50;26.33;;;17.38;;
31224;SDS011;17847;31.524;74.366;2022-07-06T12:45:46;27.45;;;17.38;;
31224;SDS011;17847;31.524;74.366;2022-07-06T12:48:28;25.17;;;17.40;;
31224;SDS011;17847;31.524;74.366;2022-07-06T12:51:24;24.63;;;16.25;;
31224;SDS011;17847;31.524;74.366;2022-07-06T12:54:12;25.45;;;15.95;;
31224;SDS011;17847;31.524;74.366;2022-07-06T12:57:10;22.67;;;16.33;;
31224;SDS011;17847;31.524;74.366;2022-07-06T12:59:58;22.00;;;15.85;;
31224;SDS011;17847;31.524;74.366;2022-07-06T13:02:55;21.75;;;15.35;;
31224;SDS011;17847;31.524;74.366;2022-07-06T13:05:48;21.58;;;16.10;;
31224;SDS011;17847;31.524;74.366;2022-07-06T13:08:38;27.58;;;17.30;;
31224;SDS011;17847;31.524;74.366;2022-07-06T13:11:20;27.67;;;18.05;;
31224;SDS011;17847;31.524;74.366;2022-07-06T13:14:09;25.58;;;17.65;;
31224;SDS011;17847;31.524;74.366;2022-07-06T13:16:51;25.02;;;17.30;;
31224;SDS011;17847;31.524;74.366;2022-07-06T13:19:40;26.67;;;17.30;;
31224;SDS011;17847;31.524;74.366;2022-07-06T13:22:22;26.33;;;18.35;;
31224;SDS011;17847;31.524;74.366;2022-07-06T13:25:11;27.08;;;17.70;;
31224;SDS011;17847;31.524;74.366;2022-07-06T13:27:54;28.85;;;18.27;;
31224;SDS011;17847;31.524;74.366;2022-07-06T13:30:43;26.90;;;17.83;;
31224;SDS011;17847;31.524;74.366;2022-07-06T13:33:25;34.88;;;18.00;;
31224;SDS011;17847;31.524;74.366;2022-07-06T13:36:21;34.08;;;18.00;;
31224;SDS011;17847;31.524;74.366;2022-07-06T13:38:57;29.95;;;18.50;;
31224;SDS011;17847;31.524;74.366;2022-07-06T13:41:53;34.83;;;17.77;;
31224;SDS011;17847;31.524;74.366;2022-07-06T13:44:35;36.60;;;19.77;;
31224;SDS011;17847;31.524;74.366;2022-07-06T13:47:25;28.60;;;21.05;;
31224;SDS011;17847;31.524;74.366;2022-07-06T13:50:00;36.67;;;21.85;;
31224;SDS011;17847;31.524;74.366;2022-07-06T13:52:56;32.35;;;21.00;;
31224;SDS011;17847;31.524;74.366;2022-07-06T13:55:38;36.85;;;21.40;;
31224;SDS011;17847;31.524;74.366;2022-07-06T13:58:27;32.65;;;22.60;;
31224;SDS011;17847;31.524;74.366;2022-07-06T14:01:09;34.72;;;23.25;;
31224;SDS011;17847;31.524;74.366;2022-07-06T14:04:05;36.63;;;21.88;;
31224;SDS011;17847;31.524;74.366;2022-07-06T14:06:47;35.95;;;23.13;;
31224;SDS011;17847;31.524;74.366;2022-07-06T14:09:36;34.50;;;22.13;;
31224;SDS011;17847;31.524;74.366;2022-07-06T14:12:18;37.20;;;21.83;;
31224;SDS011;17847;31.524;74.366;2022-07-06T14:15:08;36.08;;;23.00;;
31224;SDS011;17847;31.524;74.366;2022-07-06T14:17:50;36.50;;;23.75;;
31224;SDS011;17847;31.524;74.366;2022-07-06T14:20:46;37.22;;;23.45;;
31224;SDS011;17847;31.524;74.366;2022-07-06T14:23:43;38.80;;;23.90;;
31224;SDS011;17847;31.524;74.366;2022-07-06T14:26:18;42.38;;;26.30;;
31224;SDS011;17847;31.524;74.366;2022-07-06T14:29:14;46.28;;;27.98;;
31224;SDS011;17847;31.524;74.366;2022-07-06T14:31:56;43.40;;;26.30;;
31224;SDS011;17847;31.524;74.366;2022-07-06T14:34:51;43.30;;;26.60;;
31224;SDS011;17847;31.524;74.366;2022-07-06T14:37:33;39.80;;;24.88;;
31224;SDS011;17847;31.524;74.366;2022-07-06T14:40:21;38.25;;;26.50;;
31224;SDS011;17847;31.524;74.366;2022-07-06T14:42:58;36.80;;;25.70;;
31224;SDS011;17847;31.524;74.366;2022-07-06T14:46:00;36.55;;;24.73;;
31224;SDS011;17847;31.524;74.366;2022-07-06T14:48:43;45.28;;;29.60;;
31224;SDS011;17847;31.524;74.366;2022-07-06T14:51:32;48.72;;;31.65;;
31224;SDS011;17847;31.524;74.366;2022-07-06T14:54:07;51.38;;;32.10;;
31224;SDS011;17847;31.524;74.366;2022-07-06T14:57:03;54.22;;;33.70;;
31224;SDS011;17847;31.524;74.366;2022-07-06T14:59:45;50.10;;;32.67;;
31224;SDS011;17847;31.524;74.366;2022-07-06T15:02:35;51.00;;;34.67;;
31224;SDS011;17847;31.524;74.366;2022-07-06T15:05:17;44.92;;;31.90;;
31224;SDS011;17847;31.524;74.366;2022-07-06T15:08:06;41.45;;;28.90;;
31224;SDS011;17847;31.524;74.366;2022-07-06T15:10:48;41.05;;;27.85;;
31224;SDS011;17847;31.524;74.366;2022-07-06T15:13:30;37.90;;;26.98;;
31224;SDS011;17847;31.524;74.366;2022-07-06T15:16:18;40.33;;;26.70;;
31224;SDS011;17847;31.524;74.366;2022-07-06T15:19:01;37.42;;;24.02;;
31224;SDS011;17847;31.524;74.366;2022-07-06T15:21:50;36.72;;;23.48;;
31224;SDS011;17847;31.524;74.366;2022-07-06T15:24:46;34.58;;;23.15;;
31224;SDS011;17847;31.524;74.366;2022-07-06T15:27:21;34.67;;;22.30;;
31224;SDS011;17847;31.524;74.366;2022-07-06T15:30:18;33.58;;;21.60;;
31224;SDS011;17847;31.524;74.366;2022-07-06T15:33:03;30.02;;;21.55;;
31224;SDS011;17847;31.524;74.366;2022-07-06T15:35:45;34.22;;;20.80;;
31224;SDS011;17847;31.524;74.366;2022-07-06T15:38:34;32.63;;;19.42;;
31224;SDS011;17847;31.524;74.366;2022-07-06T15:41:17;30.67;;;19.10;;
31224;SDS011;17847;31.524;74.366;2022-07-06T15:44:07;26.58;;;19.20;;
31224;SDS011;17847;31.524;74.366;2022-07-06T15:46:49;31.67;;;19.13;;
31224;SDS011;17847;31.524;74.366;2022-07-06T15:49:37;34.15;;;18.30;;
31224;SDS011;17847;31.524;74.366;2022-07-06T15:52:26;32.75;;;19.48;;
31224;SDS011;17847;31.524;74.366;2022-07-06T15:55:15;30.42;;;18.55;;
31224;SDS011;17847;31.524;74.366;2022-07-06T15:57:57;33.30;;;17.88;;
31224;SDS011;17847;31.524;74.366;2022-07-06T16:00:53;32.05;;;17.98;;
31224;SDS011;17847;31.524;74.366;2022-07-06T16:03:35;24.98;;;16.65;;
31224;SDS011;17847;31.524;74.366;2022-07-06T16:06:27;25.48;;;16.83;;
31224;SDS011;17847;31.524;74.366;2022-07-06T16:09:29;24.65;;;15.38;;
31224;SDS011;17847;31.524;74.366;2022-07-06T16:12:26;26.77;;;14.43;;
31224;SDS011;17847;31.524;74.366;2022-07-06T16:15:01;21.10;;;14.23;;
31224;SDS011;17847;31.524;74.366;2022-07-06T16:17:56;26.08;;;16.17;;
31224;SDS011;17847;31.524;74.366;2022-07-06T16:20:40;22.42;;;15.07;;
31224;SDS011;17847;31.524;74.366;2022-07-06T16:23:29;24.73;;;15.05;;
31224;SDS011;17847;31.524;74.366;2022-07-06T16:26:24;24.23;;;16.10;;
31224;SDS011;17847;31.524;74.366;2022-07-06T16:29:20;22.00;;;13.75;;